createdAt,value
2023-04-15T00:00:13.388Z,4.70
2023-04-15T00:02:47.074Z,5.00
2023-04-15T00:05:21.527Z,5.30
2023-04-15T00:07:55.149Z,5.60
2023-04-15T00:10:28.542Z,5.70
2023-04-15T00:13:02.121Z,5.40
2023-04-15T00:15:44.169Z,4.60
2023-04-15T00:18:29.645Z,4.80
2023-04-15T00:21:00.498Z,5.00
2023-04-15T00:23:31.476Z,4.80
2023-04-15T00:26:13.541Z,5.50
2023-04-15T00:29:04.391Z,4.50
2023-04-15T00:31:37.118Z,5.10
2023-04-15T00:34:07.715Z,5.30
2023-04-15T00:36:38.439Z,4.80
2023-04-15T00:39:29.677Z,5.10
2023-04-15T00:45:01.686Z,4.80
2023-04-15T00:47:34.715Z,4.70
2023-04-15T00:50:25.821Z,5.10
2023-04-15T00:53:07.480Z,4.70
2023-04-15T00:55:38.570Z,4.60
2023-04-15T00:58:09.099Z,4.60
2023-04-15T01:01:00.961Z,5.50
2023-04-15T01:03:34.819Z,4.30
2023-04-15T01:06:17.301Z,4.80
2023-04-15T01:08:59.270Z,5.00
2023-04-15T01:11:50.214Z,4.50
2023-04-15T01:14:41.335Z,5.00
2023-04-15T01:17:12.599Z,4.90
2023-04-15T01:19:47.964Z,5.10
2023-04-15T01:22:39.480Z,5.40
2023-04-15T01:25:20.570Z,4.80
2023-04-15T01:27:53.392Z,4.70
2023-04-15T01:30:26.966Z,4.90
2023-04-15T01:33:07.608Z,4.60
2023-04-15T01:35:44.228Z,4.40
2023-04-15T01:38:36.219Z,4.50
2023-04-15T01:41:08.171Z,5.00
2023-04-15T01:43:48.444Z,5.20
2023-04-15T01:46:39.348Z,4.90
2023-04-15T01:49:12.835Z,5.00
2023-04-15T01:51:54.967Z,4.40
2023-04-15T01:54:29.154Z,4.70
2023-04-15T01:57:02.242Z,5.00
2023-04-15T01:59:35.173Z,4.30
2023-04-15T02:02:26.595Z,4.50
2023-04-15T02:05:14.750Z,5.00
2023-04-15T02:07:50.781Z,4.50
2023-04-15T02:10:31.118Z,4.20
2023-04-15T02:13:02.594Z,5.40
2023-04-15T02:15:33.327Z,4.70
2023-04-15T02:18:09.071Z,4.50
2023-04-15T02:20:47.202Z,4.20
2023-04-15T02:25:53.553Z,4.30
2023-04-15T02:28:38.264Z,4.50
2023-04-15T02:31:09.793Z,4.70
2023-04-15T02:33:42.976Z,4.60
2023-04-15T02:36:16.099Z,3.80
2023-04-15T02:38:47.740Z,4.30
2023-04-15T02:41:30.538Z,4.80
2023-04-15T02:44:13.103Z,5.00
2023-04-15T02:47:00.354Z,4.40
2023-04-15T02:49:31.089Z,4.40
2023-04-15T02:52:07.178Z,4.10
2023-04-15T02:54:37.854Z,4.80
2023-04-15T02:57:18.488Z,4.90
2023-04-15T03:00:11.809Z,4.50
2023-04-15T03:02:45.653Z,5.40
2023-04-15T03:05:25.501Z,3.80
2023-04-15T03:08:16.693Z,4.00
2023-04-15T03:10:47.392Z,5.10
2023-04-15T03:13:28.148Z,4.70
2023-04-15T03:15:59.690Z,3.60
2023-04-15T03:21:05.242Z,4.30
2023-04-15T03:23:38.887Z,4.30
2023-04-15T03:26:31.710Z,4.70
2023-04-15T03:29:25.932Z,3.70
2023-04-15T03:32:16.790Z,5.40
2023-04-15T03:34:52.197Z,4.80
2023-04-15T03:37:22.843Z,4.70
2023-04-15T03:39:53.389Z,4.60
2023-04-15T03:42:35.200Z,4.10
2023-04-15T03:45:10.111Z,4.30
2023-04-15T03:47:40.844Z,4.00
2023-04-15T03:50:19.019Z,4.40
2023-04-15T03:52:51.132Z,4.30
2023-04-15T03:55:25.612Z,4.10
2023-04-15T03:58:06.576Z,4.10
2023-04-15T04:00:45.936Z,4.20
2023-04-15T04:03:19.059Z,3.60
2023-04-15T04:05:49.953Z,4.40
2023-04-15T04:08:21.769Z,4.70
2023-04-15T04:11:02.580Z,4.60
2023-04-15T04:13:33.185Z,4.10
2023-04-15T04:16:04.723Z,4.30
2023-04-15T04:18:35.912Z,4.60
2023-04-15T04:21:10.021Z,4.70
2023-04-15T04:23:53.754Z,5.00
2023-04-15T04:26:27.517Z,4.40
2023-04-15T04:28:58.433Z,4.60
2023-04-15T04:31:29.251Z,5.20
2023-04-15T04:34:02.080Z,4.90
2023-04-15T04:36:52.343Z,4.90
2023-04-15T04:39:22.895Z,4.60
2023-04-15T04:42:03.677Z,5.20
2023-04-15T04:44:34.215Z,4.60
2023-04-15T04:47:14.704Z,4.40
2023-04-15T04:49:47.909Z,4.40
2023-04-15T04:52:39.224Z,5.10
2023-04-15T04:55:10.606Z,5.40
2023-04-15T05:00:30.314Z,4.70
2023-04-15T05:03:13.971Z,4.40
2023-04-15T05:05:44.891Z,4.90
2023-04-15T05:08:20.057Z,4.20
2023-04-15T05:10:55.038Z,5.60
2023-04-15T05:13:34.742Z,4.30
2023-04-15T05:16:05.589Z,4.80
2023-04-15T05:18:39.196Z,4.60
2023-04-15T05:21:09.906Z,5.10
2023-04-15T05:23:42.921Z,5.20
2023-04-15T05:26:24.277Z,4.60
2023-04-15T05:28:57.940Z,4.70
2023-04-15T05:31:31.419Z,4.90
2023-04-15T05:34:22.564Z,4.80
2023-04-15T05:36:56.251Z,3.70
2023-04-15T05:39:29.470Z,4.80
2023-04-15T05:42:11.389Z,5.10
2023-04-15T05:45:05.442Z,4.70
2023-04-15T05:47:39.264Z,4.30
2023-04-15T05:50:30.029Z,5.00
2023-04-15T05:53:09.606Z,4.40
2023-04-15T05:55:43.688Z,5.40
2023-04-15T05:58:34.358Z,5.90
2023-04-15T06:01:05.684Z,5.60
2023-04-15T06:03:47.647Z,6.20
2023-04-15T06:06:18.706Z,5.70
2023-04-15T06:09:10.123Z,5.20
2023-04-15T06:14:12.993Z,5.10
2023-04-15T06:16:43.602Z,5.10
2023-04-15T06:19:16.854Z,5.30
2023-04-15T06:22:08.178Z,4.90
2023-04-15T06:24:38.994Z,6.30
2023-04-15T06:27:20.332Z,6.30
2023-04-15T06:30:04.949Z,6.20
2023-04-15T06:32:46.666Z,6.10
2023-04-15T06:35:37.652Z,5.90
2023-04-15T06:38:11.093Z,6.10
2023-04-15T06:40:46.271Z,6.00
2023-04-15T06:43:16.953Z,6.40
2023-04-15T06:45:49.770Z,7.20
2023-04-15T06:48:20.670Z,7.30
2023-04-15T06:50:54.470Z,7.40
2023-04-15T06:53:28.536Z,7.30
2023-04-15T06:56:19.082Z,6.90
2023-04-15T06:58:52.359Z,7.40
2023-04-15T07:01:23.166Z,6.80
2023-04-15T07:03:57.121Z,6.40
2023-04-15T07:06:27.574Z,6.50
2023-04-15T07:09:01.580Z,6.70
2023-04-15T07:11:32.558Z,6.50
2023-04-15T07:14:03.068Z,6.40
2023-04-15T07:16:33.852Z,6.10
2023-04-15T07:19:04.705Z,6.10
2023-04-15T07:21:40.045Z,6.90
2023-04-15T07:24:23.268Z,6.20
2023-04-15T07:29:22.789Z,7.30
2023-04-15T07:31:53.291Z,8.10
2023-04-15T07:34:24.599Z,7.30
2023-04-15T07:37:06.616Z,7.60
2023-04-15T07:39:37.282Z,8.10
2023-04-15T07:42:10.523Z,8.20
2023-04-15T07:45:01.273Z,7.30
2023-04-15T07:47:42.975Z,7.70
2023-04-15T07:50:33.725Z,6.40
2023-04-15T07:53:04.362Z,6.10
2023-04-15T07:55:45.942Z,5.60
2023-04-15T07:58:19.547Z,5.90
2023-04-15T08:00:55.177Z,5.90
2023-04-15T08:03:29.475Z,5.30
2023-04-15T08:06:14.609Z,5.90
2023-04-15T08:08:48.332Z,5.70
2023-04-15T08:11:18.827Z,6.50
2023-04-15T08:13:49.406Z,6.00
2023-04-15T08:16:27.606Z,6.30
2023-04-15T08:19:00.432Z,5.60
2023-04-15T08:21:31.745Z,5.30
2023-04-15T08:24:11.494Z,6.10
2023-04-15T08:26:42.091Z,5.70
2023-04-15T08:29:12.722Z,5.60
2023-04-15T08:31:43.505Z,5.50
2023-04-15T08:34:14.309Z,6.10
2023-04-15T08:36:45.005Z,6.50
2023-04-15T08:39:15.653Z,6.70
2023-04-15T08:41:49.181Z,6.50
2023-04-15T08:44:22.059Z,6.20
2023-04-15T08:46:57.736Z,6.40
2023-04-15T08:49:30.731Z,6.30
2023-04-15T08:52:04.427Z,6.80
2023-04-15T08:54:37.609Z,5.90
2023-04-15T08:57:17.888Z,6.70
2023-04-15T08:59:49.570Z,6.70
2023-04-15T09:02:20.943Z,8.10
2023-04-15T09:07:20.733Z,7.10
2023-04-15T09:09:52.442Z,7.50
2023-04-15T09:12:23.015Z,6.60
2023-04-15T09:14:54.049Z,8.60
2023-04-15T09:17:26.605Z,7.70
2023-04-15T09:20:11.244Z,7.60
2023-04-15T09:22:42.249Z,8.00
2023-04-15T09:25:31.069Z,8.10
2023-04-15T09:28:04.387Z,7.80
2023-04-15T09:30:35.345Z,7.60
2023-04-15T09:33:08.636Z,7.70
2023-04-15T09:35:39.822Z,8.20
2023-04-15T09:38:11.637Z,8.20
2023-04-15T09:40:43.609Z,8.60
2023-04-15T09:43:14.070Z,10.00
2023-04-15T09:45:50.695Z,9.40
2023-04-15T09:48:23.093Z,9.60
2023-04-15T09:50:54.874Z,9.20
2023-04-15T09:53:26.486Z,8.90
2023-04-15T09:56:00.860Z,8.50
2023-04-15T09:58:33.840Z,6.90
2023-04-15T10:01:09.286Z,6.80
2023-04-15T10:03:42.419Z,6.00
2023-04-15T10:06:13.263Z,6.30
2023-04-15T10:08:44.226Z,5.80
2023-04-15T10:11:15.118Z,6.80
2023-04-15T10:13:46.106Z,6.50
2023-04-15T10:16:18.395Z,5.60
2023-04-15T10:18:56.727Z,5.90
2023-04-15T10:21:29.116Z,5.90
2023-04-15T10:24:02.529Z,5.70
2023-04-15T10:26:33.526Z,6.30
2023-04-15T10:29:04.948Z,5.90
2023-04-15T10:31:38.366Z,5.20
2023-04-15T10:34:10.873Z,4.60
2023-04-15T10:36:41.516Z,4.20
2023-04-15T10:42:20.500Z,5.40
2023-04-15T10:44:57.861Z,5.00
2023-04-15T10:47:28.614Z,5.10
2023-04-15T10:50:03.680Z,3.60
2023-04-15T10:52:34.248Z,3.60
2023-04-15T10:55:14.238Z,3.60
2023-04-15T10:57:45.561Z,3.40
2023-04-15T11:00:18.123Z,3.90
2023-04-15T11:02:53.644Z,4.00
2023-04-15T11:05:45.107Z,4.20
2023-04-15T11:08:16.352Z,4.50
2023-04-15T11:10:59.649Z,3.80
2023-04-15T11:13:35.033Z,4.60
2023-04-15T11:16:08.965Z,5.70
2023-04-15T11:18:40.902Z,4.30
2023-04-15T11:21:14.261Z,3.90
2023-04-15T11:23:47.012Z,3.10
2023-04-15T11:26:17.587Z,30.00
2023-04-15T11:28:48.636Z,4.10
2023-04-15T11:31:20.516Z,3.20
2023-04-15T11:33:58.258Z,2.90
2023-04-15T11:36:29.806Z,2.80
2023-04-15T11:39:01.258Z,2.70
2023-04-15T11:41:32.045Z,3.20
2023-04-15T11:44:02.917Z,2.70
2023-04-15T11:46:36.233Z,2.80
2023-04-15T11:49:06.860Z,3.10
2023-04-15T11:51:37.823Z,2.70
2023-04-15T11:54:11.021Z,2.80
2023-04-15T11:56:41.805Z,2.80
2023-04-15T11:59:12.445Z,3.20
2023-04-15T12:01:49.143Z,3.20
2023-04-15T12:04:25.109Z,2.80
2023-04-15T12:07:05.706Z,3.90
2023-04-15T12:09:40.868Z,3.50
2023-04-15T12:12:12.515Z,3.60
2023-04-15T12:14:43.310Z,3.40
2023-04-15T12:17:14.098Z,3.40
2023-04-15T12:19:45.724Z,4.70
2023-04-15T12:22:17.668Z,3.20
2023-04-15T12:24:49.541Z,3.70
2023-04-15T12:27:21.153Z,3.70
2023-04-15T12:29:51.652Z,4.10
2023-04-15T12:32:22.875Z,4.00
2023-04-15T12:34:55.285Z,4.80
2023-04-15T12:37:26.232Z,4.00
2023-04-15T12:39:56.696Z,3.90
2023-04-15T12:42:27.464Z,4.20
2023-04-15T12:44:58.029Z,4.50
2023-04-15T12:47:28.745Z,4.10
2023-04-15T12:49:59.255Z,4.20
2023-04-15T12:52:29.777Z,3.90
2023-04-15T12:55:03.616Z,4.30
2023-04-15T12:57:34.141Z,4.50
2023-04-15T13:00:08.242Z,3.80
2023-04-15T13:02:39.222Z,3.40
2023-04-15T13:05:11.075Z,3.60
2023-04-15T13:07:41.645Z,3.90
2023-04-15T13:10:13.192Z,3.30
2023-04-15T13:12:43.721Z,3.40
2023-04-15T13:15:14.895Z,4.00
2023-04-15T13:17:45.546Z,3.60
2023-04-15T13:20:17.324Z,3.10
2023-04-15T13:22:47.743Z,2.90
2023-04-15T13:25:18.305Z,2.90
2023-04-15T13:27:49.154Z,3.40
2023-04-15T13:30:19.785Z,3.30
2023-04-15T13:32:50.906Z,2.90
2023-04-15T13:35:30.822Z,2.70
2023-04-15T13:38:01.301Z,2.80
2023-04-15T13:40:31.844Z,2.70
2023-04-15T13:43:03.418Z,2.90
2023-04-15T13:45:34.089Z,2.80
2023-04-15T13:48:04.732Z,2.90
2023-04-15T13:50:35.078Z,3.00
2023-04-15T13:53:08.277Z,2.80
2023-04-15T13:55:42.850Z,2.90
2023-04-15T13:58:13.655Z,2.80
2023-04-15T14:00:44.193Z,2.50
2023-04-15T14:03:14.655Z,2.50
2023-04-15T14:05:45.733Z,3.30
2023-04-15T14:08:16.660Z,3.90
2023-04-15T14:10:48.453Z,3.90
2023-04-15T14:13:19.652Z,4.50
2023-04-15T14:15:50.413Z,4.40
2023-04-15T14:18:21.019Z,4.10
2023-04-15T14:20:51.753Z,4.40
2023-04-15T14:23:22.289Z,4.60
2023-04-15T14:25:53.064Z,3.80
2023-04-15T14:28:23.604Z,4.10
2023-04-15T14:30:54.147Z,4.20
2023-04-15T14:33:24.763Z,3.80
2023-04-15T14:35:55.139Z,3.90
2023-04-15T14:38:25.550Z,2.80
2023-04-15T14:40:56.013Z,2.70
2023-04-15T14:43:26.589Z,3.30
2023-04-15T14:45:57.744Z,3.00
2023-04-15T14:48:28.512Z,3.50
2023-04-15T14:50:59.082Z,3.20
2023-04-15T14:53:29.897Z,3.70
2023-04-15T14:56:00.717Z,3.00
2023-04-15T14:58:31.217Z,2.70
2023-04-15T15:01:02.867Z,2.90
2023-04-15T15:03:33.908Z,3.20
2023-04-15T15:06:04.732Z,2.80
2023-04-15T15:08:36.885Z,2.90
2023-04-15T15:11:07.738Z,3.00
2023-04-15T15:13:38.339Z,2.20
2023-04-15T15:16:11.851Z,2.40
2023-04-15T15:18:43.972Z,2.00
2023-04-15T15:21:15.662Z,2.30
2023-04-15T15:23:48.374Z,2.20
2023-04-15T15:26:19.389Z,2.20
2023-04-15T15:29:01.137Z,2.70
2023-04-15T15:31:31.655Z,3.00
2023-04-15T15:34:02.952Z,2.70
2023-04-15T15:36:33.802Z,3.00
2023-04-15T15:41:35.560Z,2.40
2023-04-15T15:44:08.756Z,3.00
2023-04-15T15:46:39.358Z,2.90
2023-04-15T15:49:10.010Z,3.00
2023-04-15T15:51:43.633Z,3.50
2023-04-15T15:54:14.225Z,3.10
2023-04-15T15:56:45.070Z,2.90
2023-04-15T15:59:35.802Z,3.30
2023-04-15T16:02:06.375Z,2.80
2023-04-15T16:04:37.785Z,3.60
2023-04-15T16:07:11.221Z,3.10
2023-04-15T16:09:42.724Z,2.90
2023-04-15T16:12:13.364Z,2.10
2023-04-15T16:14:44.244Z,2.40
2023-04-15T16:17:17.845Z,2.40
2023-04-15T16:19:58.753Z,2.60
2023-04-15T16:22:31.698Z,3.60
2023-04-15T16:25:02.572Z,3.60
2023-04-15T16:27:33.880Z,3.20
2023-04-15T16:30:10.705Z,2.80
2023-04-15T16:32:41.811Z,2.80
2023-04-15T16:35:34.515Z,3.00
2023-04-15T16:38:06.382Z,3.40
2023-04-15T16:40:37.968Z,3.40
2023-04-15T16:43:21.570Z,3.30
2023-04-15T16:45:59.498Z,4.40
2023-04-15T16:48:30.331Z,4.20
2023-04-15T16:51:01.030Z,4.50
2023-04-15T16:53:32.210Z,4.00
2023-04-15T16:56:02.771Z,4.40
2023-04-15T16:58:33.423Z,4.30
2023-04-15T17:01:04.384Z,4.70
2023-04-15T17:03:35.401Z,4.90
2023-04-15T17:08:35.594Z,6.00
2023-04-15T17:11:06.407Z,5.50
2023-04-15T17:13:36.945Z,5.50
2023-04-15T17:16:07.960Z,5.60
2023-04-15T17:18:39.980Z,6.30
2023-04-15T17:21:10.680Z,6.40
2023-04-15T17:23:41.124Z,6.30
2023-04-15T17:26:11.800Z,6.70
2023-04-15T17:28:42.577Z,6.80
2023-04-15T17:31:13.345Z,7.40
2023-04-15T17:33:57.633Z,7.30
2023-04-15T17:36:37.549Z,6.90
2023-04-15T17:39:08.376Z,7.60
2023-04-15T17:41:47.521Z,7.90
2023-04-15T17:44:19.302Z,8.00
2023-04-15T17:46:50.195Z,8.60
2023-04-15T17:49:20.956Z,7.60
2023-04-15T17:51:54.858Z,8.00
2023-04-15T17:54:27.737Z,8.60
2023-04-15T17:57:00.117Z,6.70
2023-04-15T17:59:34.805Z,8.30
2023-04-15T18:02:18.658Z,7.80
2023-04-15T18:04:52.427Z,7.80
2023-04-15T18:07:23.270Z,8.70
2023-04-15T18:09:56.778Z,9.00
2023-04-15T18:12:39.067Z,8.60
2023-04-15T18:15:14.562Z,9.10
2023-04-15T18:17:48.708Z,8.60
2023-04-15T18:22:50.646Z,10.00
2023-04-15T18:25:21.561Z,8.20
2023-04-15T18:28:12.341Z,9.10
2023-04-15T18:30:45.208Z,10.90
2023-04-15T18:33:16.284Z,8.00
2023-04-15T18:36:02.495Z,9.80
2023-04-15T18:38:33.081Z,9.40
2023-04-15T18:41:05.462Z,9.00
2023-04-15T18:43:45.958Z,8.10
2023-04-15T18:46:30.261Z,8.70
2023-04-15T18:49:21.127Z,8.90
2023-04-15T18:51:54.724Z,8.80
2023-04-15T18:54:28.348Z,9.90
2023-04-15T18:56:58.847Z,8.70
2023-04-15T18:59:39.747Z,9.60
2023-04-15T19:02:13.058Z,10.50
2023-04-15T19:04:54.087Z,11.80
2023-04-15T19:07:44.823Z,10.90
2023-04-15T19:10:36.527Z,10.20
2023-04-15T19:13:10.115Z,11.20
2023-04-15T19:15:50.117Z,10.90
2023-04-15T19:18:40.772Z,11.20
2023-04-15T19:21:32.832Z,10.50
2023-04-15T19:24:23.587Z,11.30
2023-04-15T19:26:58.269Z,10.80
2023-04-15T19:29:38.836Z,11.50
2023-04-15T19:32:22.416Z,10.50
2023-04-15T19:35:02.069Z,11.10
2023-04-15T19:37:32.611Z,11.40
2023-04-15T19:40:14.899Z,12.60
2023-04-15T19:42:55.553Z,13.70
2023-04-15T19:45:36.731Z,14.80
2023-04-15T19:48:28.063Z,15.30
2023-04-15T19:50:59.989Z,16.50
2023-04-15T19:53:32.100Z,15.50
2023-04-15T19:56:05.324Z,15.50
2023-04-15T19:58:47.789Z,12.90
2023-04-15T20:01:28.898Z,12.10
2023-04-15T20:04:00.154Z,12.60
2023-04-15T20:06:33.951Z,12.40
2023-04-15T20:09:10.373Z,11.80
2023-04-15T20:12:45.969Z,12.50
2023-04-15T20:14:56.124Z,14.70
2023-04-15T20:17:47.156Z,12.90
2023-04-15T20:20:20.335Z,11.90
2023-04-15T20:22:52.704Z,11.70
2023-04-15T20:25:23.266Z,13.50
2023-04-15T20:27:53.875Z,11.30
2023-04-15T20:30:24.548Z,12.90
2023-04-15T20:32:55.262Z,13.20
2023-04-15T20:35:45.994Z,13.40
2023-04-15T20:38:16.859Z,13.80
2023-04-15T20:40:47.658Z,15.70
2023-04-15T20:43:24.443Z,14.30
2023-04-15T20:46:17.878Z,14.60
2023-04-15T20:48:51.914Z,13.60
2023-04-15T20:51:25.244Z,15.70
2023-04-15T20:53:56.251Z,15.90
2023-04-15T20:56:26.779Z,15.30
2023-04-15T20:58:57.611Z,15.70
2023-04-15T21:01:28.548Z,15.60
2023-04-15T21:04:01.811Z,16.10
2023-04-15T21:06:33.939Z,16.90
2023-04-15T21:09:07.592Z,17.00
2023-04-15T21:14:17.170Z,16.30
2023-04-15T21:16:47.955Z,16.70
2023-04-15T21:19:18.764Z,15.40
2023-04-15T21:21:51.874Z,15.30
2023-04-15T21:24:22.475Z,16.80
2023-04-15T21:26:56.697Z,16.70
2023-04-15T21:29:30.062Z,15.10
2023-04-15T21:32:00.553Z,15.90
2023-04-15T21:34:31.083Z,15.00
2023-04-15T21:37:21.692Z,16.00
2023-04-15T21:39:52.281Z,15.40
2023-04-15T21:42:22.880Z,14.00
2023-04-15T21:44:53.376Z,13.90
2023-04-15T21:47:26.826Z,15.10
2023-04-15T21:50:09.440Z,14.90
2023-04-15T21:52:40.265Z,13.60
2023-04-15T21:55:13.522Z,14.10
2023-04-15T21:57:43.906Z,14.60
2023-04-15T22:00:17.991Z,12.70
2023-04-15T22:02:48.686Z,14.70
2023-04-15T22:05:29.881Z,14.20
2023-04-15T22:08:03.525Z,16.00
2023-04-15T22:10:44.761Z,14.60
2023-04-15T22:13:28.096Z,14.20
2023-04-15T22:16:09.944Z,13.80
2023-04-15T22:18:43.206Z,14.80
2023-04-15T22:21:33.822Z,14.30
2023-04-15T22:24:36.969Z,15.20
2023-04-15T22:26:59.015Z,13.20
2023-04-15T22:29:29.843Z,12.70
2023-04-15T22:32:00.371Z,13.10
2023-04-15T22:34:30.987Z,13.90
2023-04-15T22:37:13.647Z,13.60
2023-04-15T22:39:54.068Z,14.80
2023-04-15T22:42:25.119Z,13.50
2023-04-15T22:45:16.033Z,12.80
2023-04-15T22:47:46.712Z,13.40
2023-04-15T22:50:39.350Z,14.80
2023-04-15T22:53:09.859Z,13.60
2023-04-15T22:55:40.464Z,14.10
2023-04-15T22:58:10.967Z,13.10
2023-04-15T23:00:43.729Z,12.60
2023-04-15T23:03:55.803Z,13.80
2023-04-15T23:06:24.791Z,12.70
2023-04-15T23:08:58.631Z,12.40
2023-04-15T23:11:29.208Z,12.80
2023-04-15T23:14:09.809Z,13.10
2023-04-15T23:17:00.914Z,12.80
2023-04-15T23:19:31.414Z,12.90
2023-04-15T23:22:10.618Z,13.00
2023-04-15T23:24:51.417Z,13.70
2023-04-15T23:27:22.855Z,13.00
2023-04-15T23:29:53.245Z,11.90
2023-04-15T23:32:29.249Z,12.80
2023-04-15T23:34:59.860Z,13.00
2023-04-15T23:37:32.401Z,13.30
2023-04-15T23:40:21.316Z,13.10
2023-04-15T23:43:12.050Z,12.60
2023-04-15T23:46:02.701Z,11.80
2023-04-15T23:48:35.825Z,12.40
2023-04-15T23:51:07.069Z,13.50
2023-04-15T23:53:37.680Z,13.20
2023-04-15T23:56:19.479Z,12.50
2023-04-15T23:58:52.509Z,13.80
